sensor_id;sensor_type;location;lat;lon;timestamp;pressure;altitude;pressure_sealevel;temperature;humidity
40384;BME280;26097;42.366;23.818;2023-02-04T00:02:27;93832.53;;;1.96;84.56
40384;BME280;26097;42.366;23.818;2023-02-04T00:05:27;93821.53;;;1.93;86.69
40384;BME280;26097;42.366;23.818;2023-02-04T00:08:27;93811.25;;;1.93;85.95
40384;BME280;26097;42.366;23.818;2023-02-04T00:11:28;93799.31;;;1.92;87.72
40384;BME280;26097;42.366;23.818;2023-02-04T00:14:28;93787.22;;;1.94;87.88
40384;BME280;26097;42.366;23.818;2023-02-04T00:17:29;93782.09;;;1.94;88.32
40384;BME280;26097;42.366;23.818;2023-02-04T00:20:29;93794.03;;;1.95;89.22
40384;BME280;26097;42.366;23.818;2023-02-04T00:23:29;93784.59;;;1.95;90.40
40384;BME280;26097;42.366;23.818;2023-02-04T00:26:30;93777.03;;;1.92;91.92
40384;BME280;26097;42.366;23.818;2023-02-04T00:29:30;93765.28;;;1.87;94.36
40384;BME280;26097;42.366;23.818;2023-02-04T00:32:31;93756.53;;;1.91;92.94
40384;BME280;26097;42.366;23.818;2023-02-04T00:35:31;93766.06;;;1.89;94.96
40384;BME280;26097;42.366;23.818;2023-02-04T00:38:31;93741.19;;;1.89;95.76
40384;BME280;26097;42.366;23.818;2023-02-04T00:41:32;93745.28;;;1.93;95.05
40384;BME280;26097;42.366;23.818;2023-02-04T00:44:32;93741.81;;;1.94;95.20
40384;BME280;26097;42.366;23.818;2023-02-04T00:47:33;93725.41;;;1.97;93.79
40384;BME280;26097;42.366;23.818;2023-02-04T00:50:33;93726.06;;;2.00;92.53
40384;BME280;26097;42.366;23.818;2023-02-04T00:53:38;93728.75;;;1.99;92.18
40384;BME280;26097;42.366;23.818;2023-02-04T00:56:39;93721.84;;;1.99;91.79
40384;BME280;26097;42.366;23.818;2023-02-04T00:59:39;93722.75;;;1.98;92.22
40384;BME280;26097;42.366;23.818;2023-02-04T01:02:39;93715.72;;;2.02;91.50
40384;BME280;26097;42.366;23.818;2023-02-04T01:05:40;93708.03;;;2.02;91.84
40384;BME280;26097;42.366;23.818;2023-02-04T01:08:40;93696.81;;;2.03;92.18
40384;BME280;26097;42.366;23.818;2023-02-04T01:11:40;93690.03;;;2.02;92.68
40384;BME280;26097;42.366;23.818;2023-02-04T01:14:41;93682.47;;;1.99;92.85
40384;BME280;26097;42.366;23.818;2023-02-04T01:17:41;93676.25;;;2.03;92.61
40384;BME280;26097;42.366;23.818;2023-02-04T01:20:42;93664.31;;;2.02;92.08
40384;BME280;26097;42.366;23.818;2023-02-04T01:23:42;93669.13;;;1.91;93.69
40384;BME280;26097;42.366;23.818;2023-02-04T01:26:43;93675.19;;;1.90;92.77
40384;BME280;26097;42.366;23.818;2023-02-04T01:29:43;93672.72;;;1.88;92.89
40384;BME280;26097;42.366;23.818;2023-02-04T01:32:44;93669.34;;;1.86;93.75
40384;BME280;26097;42.366;23.818;2023-02-04T01:35:44;93657.03;;;1.75;96.39
40384;BME280;26097;42.366;23.818;2023-02-04T01:38:44;93662.97;;;1.77;97.09
40384;BME280;26097;42.366;23.818;2023-02-04T01:41:45;93655.53;;;1.71;97.46
40384;BME280;26097;42.366;23.818;2023-02-04T01:44:45;93651.22;;;1.71;97.26
40384;BME280;26097;42.366;23.818;2023-02-04T01:47:46;93649.78;;;1.66;100.00
40384;BME280;26097;42.366;23.818;2023-02-04T01:50:52;93642.81;;;1.68;100.00
40384;BME280;26097;42.366;23.818;2023-02-04T01:53:56;93651.13;;;1.73;99.13
40384;BME280;26097;42.366;23.818;2023-02-04T01:56:57;93650.16;;;1.76;99.30
40384;BME280;26097;42.366;23.818;2023-02-04T01:59:57;93657.34;;;1.87;99.41
40384;BME280;26097;42.366;23.818;2023-02-04T02:02:59;93636.03;;;1.84;100.00
40384;BME280;26097;42.366;23.818;2023-02-04T02:05:59;93645.19;;;1.90;99.71
40384;BME280;26097;42.366;23.818;2023-02-04T02:09:00;93638.13;;;1.94;98.80
40384;BME280;26097;42.366;23.818;2023-02-04T02:12:02;93632.56;;;2.03;97.22
40384;BME280;26097;42.366;23.818;2023-02-04T02:15:03;93621.28;;;2.06;96.73
40384;BME280;26097;42.366;23.818;2023-02-04T02:18:04;93617.50;;;2.13;95.86
40384;BME280;26097;42.366;23.818;2023-02-04T02:21:08;93629.44;;;2.14;95.18
40384;BME280;26097;42.366;23.818;2023-02-04T02:24:27;93611.34;;;2.16;94.85
40384;BME280;26097;42.366;23.818;2023-02-04T02:27:28;93611.22;;;2.19;94.15
40384;BME280;26097;42.366;23.818;2023-02-04T02:30:28;93601.00;;;2.17;94.34
40384;BME280;26097;42.366;23.818;2023-02-04T02:33:29;93592.59;;;2.13;95.13
40384;BME280;26097;42.366;23.818;2023-02-04T02:36:30;93606.22;;;2.16;95.42
40384;BME280;26097;42.366;23.818;2023-02-04T02:39:30;93604.25;;;2.21;94.89
40384;BME280;26097;42.366;23.818;2023-02-04T02:42:31;93612.56;;;2.26;94.14
40384;BME280;26097;42.366;23.818;2023-02-04T02:45:33;93624.19;;;2.33;93.53
40384;BME280;26097;42.366;23.818;2023-02-04T02:48:34;93610.66;;;2.30;94.49
40384;BME280;26097;42.366;23.818;2023-02-04T02:51:35;93595.47;;;2.25;94.66
40384;BME280;26097;42.366;23.818;2023-02-04T02:54:35;93584.66;;;2.18;95.13
40384;BME280;26097;42.366;23.818;2023-02-04T02:57:35;93589.28;;;2.11;95.78
40384;BME280;26097;42.366;23.818;2023-02-04T03:00:36;93577.50;;;2.07;95.23
40384;BME280;26097;42.366;23.818;2023-02-04T03:03:50;93575.31;;;1.99;95.19
40384;BME280;26097;42.366;23.818;2023-02-04T03:06:51;93570.63;;;2.08;94.38
40384;BME280;26097;42.366;23.818;2023-02-04T03:09:53;93566.31;;;2.08;94.33
40384;BME280;26097;42.366;23.818;2023-02-04T03:12:53;93558.75;;;2.05;94.42
40384;BME280;26097;42.366;23.818;2023-02-04T03:15:54;93562.69;;;1.95;94.81
40384;BME280;26097;42.366;23.818;2023-02-04T03:18:54;93544.56;;;1.98;94.03
40384;BME280;26097;42.366;23.818;2023-02-04T03:21:55;93548.47;;;2.05;93.23
40384;BME280;26097;42.366;23.818;2023-02-04T03:24:57;93534.34;;;1.96;93.22
40384;BME280;26097;42.366;23.818;2023-02-04T03:27:57;93538.50;;;1.99;92.75
40384;BME280;26097;42.366;23.818;2023-02-04T03:30:58;93536.16;;;1.94;92.90
40384;BME280;26097;42.366;23.818;2023-02-04T03:33:59;93541.66;;;2.04;92.04
40384;BME280;26097;42.366;23.818;2023-02-04T03:36:59;93544.81;;;2.09;91.55
40384;BME280;26097;42.366;23.818;2023-02-04T03:40:00;93548.81;;;2.15;91.31
40384;BME280;26097;42.366;23.818;2023-02-04T03:43:00;93544.78;;;2.27;89.57
40384;BME280;26097;42.366;23.818;2023-02-04T03:46:01;93533.19;;;2.36;89.44
40384;BME280;26097;42.366;23.818;2023-02-04T03:49:01;93540.91;;;2.52;88.01
40384;BME280;26097;42.366;23.818;2023-02-04T03:52:02;93532.53;;;2.64;85.51
40384;BME280;26097;42.366;23.818;2023-02-04T03:55:03;93524.31;;;2.74;85.47
40384;BME280;26097;42.366;23.818;2023-02-04T03:58:04;93524.31;;;2.74;86.10
40384;BME280;26097;42.366;23.818;2023-02-04T04:01:05;93517.19;;;2.79;85.01
40384;BME280;26097;42.366;23.818;2023-02-04T04:04:05;93522.16;;;2.82;84.90
40384;BME280;26097;42.366;23.818;2023-02-04T04:07:05;93517.19;;;2.79;84.65
40384;BME280;26097;42.366;23.818;2023-02-04T04:10:06;93512.44;;;2.87;83.67
40384;BME280;26097;42.366;23.818;2023-02-04T04:13:06;93500.22;;;2.91;83.49
40384;BME280;26097;42.366;23.818;2023-02-04T04:16:07;93493.59;;;2.87;83.79
40384;BME280;26097;42.366;23.818;2023-02-04T04:19:08;93505.63;;;2.86;84.20
40384;BME280;26097;42.366;23.818;2023-02-04T04:22:09;93496.19;;;2.87;83.19
40384;BME280;26097;42.366;23.818;2023-02-04T04:25:09;93502.13;;;2.87;83.92
40384;BME280;26097;42.366;23.818;2023-02-04T04:28:10;93491.09;;;2.85;82.66
40384;BME280;26097;42.366;23.818;2023-02-04T04:31:10;93485.88;;;2.87;83.09
40384;BME280;26097;42.366;23.818;2023-02-04T04:34:11;93478.91;;;2.89;81.96
40384;BME280;26097;42.366;23.818;2023-02-04T04:37:11;93483.13;;;2.90;82.36
40384;BME280;26097;42.366;23.818;2023-02-04T04:40:12;93483.19;;;2.88;81.48
40384;BME280;26097;42.366;23.818;2023-02-04T04:43:12;93482.47;;;2.86;82.46
40384;BME280;26097;42.366;23.818;2023-02-04T04:46:13;93480.13;;;2.81;82.49
40384;BME280;26097;42.366;23.818;2023-02-04T04:49:13;93480.41;;;2.77;83.08
40384;BME280;26097;42.366;23.818;2023-02-04T04:52:13;93491.44;;;2.79;83.16
40384;BME280;26097;42.366;23.818;2023-02-04T04:55:14;93501.91;;;2.76;83.95
40384;BME280;26097;42.366;23.818;2023-02-04T04:58:14;93486.63;;;2.72;83.83
40384;BME280;26097;42.366;23.818;2023-02-04T05:01:15;93499.09;;;2.64;85.78
40384;BME280;26097;42.366;23.818;2023-02-04T05:04:15;93499.09;;;2.64;86.65
40384;BME280;26097;42.366;23.818;2023-02-04T05:07:15;93507.72;;;2.63;87.26
40384;BME280;26097;42.366;23.818;2023-02-04T05:10:16;93502.25;;;2.53;90.36
40384;BME280;26097;42.366;23.818;2023-02-04T05:13:16;93509.88;;;2.55;91.75
40384;BME280;26097;42.366;23.818;2023-02-04T05:16:17;93514.88;;;2.58;91.96
40384;BME280;26097;42.366;23.818;2023-02-04T05:19:17;93515.00;;;2.55;94.74
40384;BME280;26097;42.366;23.818;2023-02-04T05:22:18;93519.16;;;2.57;95.25
40384;BME280;26097;42.366;23.818;2023-02-04T05:25:18;93507.91;;;2.60;95.26
40384;BME280;26097;42.366;23.818;2023-02-04T05:28:18;93517.16;;;2.63;95.77
40384;BME280;26097;42.366;23.818;2023-02-04T05:31:19;93527.56;;;2.61;95.86
40384;BME280;26097;42.366;23.818;2023-02-04T05:34:19;93523.50;;;2.57;96.90
40384;BME280;26097;42.366;23.818;2023-02-04T05:37:20;93534.94;;;2.51;99.56
40384;BME280;26097;42.366;23.818;2023-02-04T05:40:20;93539.25;;;2.35;100.00
40384;BME280;26097;42.366;23.818;2023-02-04T05:43:20;93532.25;;;2.21;100.00
40384;BME280;26097;42.366;23.818;2023-02-04T05:46:21;93527.41;;;2.14;100.00
40384;BME280;26097;42.366;23.818;2023-02-04T05:49:21;93543.34;;;2.05;100.00
40384;BME280;26097;42.366;23.818;2023-02-04T05:52:22;93538.19;;;2.05;100.00
40384;BME280;26097;42.366;23.818;2023-02-04T05:55:23;93541.66;;;2.04;100.00
40384;BME280;26097;42.366;23.818;2023-02-04T05:58:23;93555.81;;;1.95;100.00
40384;BME280;26097;42.366;23.818;2023-02-04T06:01:24;93559.38;;;1.93;100.00
40384;BME280;26097;42.366;23.818;2023-02-04T06:04:24;93559.69;;;1.87;100.00
40384;BME280;26097;42.366;23.818;2023-02-04T06:07:24;93561.34;;;1.88;100.00
40384;BME280;26097;42.366;23.818;2023-02-04T06:10:26;93569.59;;;1.94;100.00
40384;BME280;26097;42.366;23.818;2023-02-04T06:13:26;93578.25;;;2.09;100.00
40384;BME280;26097;42.366;23.818;2023-02-04T06:16:27;93569.16;;;2.20;100.00
40384;BME280;26097;42.366;23.818;2023-02-04T06:19:27;93569.75;;;2.25;100.00
40384;BME280;26097;42.366;23.818;2023-02-04T06:22:27;93577.31;;;2.28;100.00
40384;BME280;26097;42.366;23.818;2023-02-04T06:25:28;93559.81;;;2.35;100.00
40384;BME280;26097;42.366;23.818;2023-02-04T06:28:28;93568.63;;;2.47;100.00
40384;BME280;26097;42.366;23.818;2023-02-04T06:31:29;93578.59;;;2.53;100.00
40384;BME280;26097;42.366;23.818;2023-02-04T06:34:29;93577.09;;;2.65;100.00
40384;BME280;26097;42.366;23.818;2023-02-04T06:37:30;93588.63;;;2.57;100.00
40384;BME280;26097;42.366;23.818;2023-02-04T06:40:30;93599.16;;;2.53;100.00
40384;BME280;26097;42.366;23.818;2023-02-04T06:43:31;93599.34;;;2.50;100.00
40384;BME280;26097;42.366;23.818;2023-02-04T06:46:32;93598.00;;;2.42;100.00
40384;BME280;26097;42.366;23.818;2023-02-04T06:49:32;93582.22;;;2.49;100.00
40384;BME280;26097;42.366;23.818;2023-02-04T06:52:32;93589.84;;;2.34;100.00
40384;BME280;26097;42.366;23.818;2023-02-04T06:55:33;93581.94;;;2.21;100.00
40384;BME280;26097;42.366;23.818;2023-02-04T06:58:33;93597.63;;;2.17;100.00
40384;BME280;26097;42.366;23.818;2023-02-04T07:01:34;93592.47;;;2.17;100.00
40384;BME280;26097;42.366;23.818;2023-02-04T07:04:34;93595.91;;;2.16;100.00
40384;BME280;26097;42.366;23.818;2023-02-04T07:07:34;93604.53;;;2.14;100.00
40384;BME280;26097;42.366;23.818;2023-02-04T07:10:35;93603.41;;;2.20;100.00
40384;BME280;26097;42.366;23.818;2023-02-04T07:13:35;93605.16;;;2.20;100.00
40384;BME280;26097;42.366;23.818;2023-02-04T07:16:36;93604.44;;;2.34;100.00
40384;BME280;26097;42.366;23.818;2023-02-04T07:19:36;93596.09;;;2.46;100.00
40384;BME280;26097;42.366;23.818;2023-02-04T07:22:37;93592.34;;;2.52;100.00
40384;BME280;26097;42.366;23.818;2023-02-04T07:25:38;93594.22;;;2.66;100.00
40384;BME280;26097;42.366;23.818;2023-02-04T07:28:38;93589.06;;;2.98;100.00
40384;BME280;26097;42.366;23.818;2023-02-04T07:31:40;93583.44;;;3.07;100.00
40384;BME280;26097;42.366;23.818;2023-02-04T07:34:40;93578.50;;;3.19;100.00
40384;BME280;26097;42.366;23.818;2023-02-04T07:37:41;93575.00;;;3.36;100.00
40384;BME280;26097;42.366;23.818;2023-02-04T07:40:41;93571.22;;;3.57;99.79
40384;BME280;26097;42.366;23.818;2023-02-04T07:43:42;93562.47;;;3.60;94.99
40384;BME280;26097;42.366;23.818;2023-02-04T07:46:42;93553.88;;;3.45;93.34
40384;BME280;26097;42.366;23.818;2023-02-04T07:49:42;93559.88;;;3.60;94.63
40384;BME280;26097;42.366;23.818;2023-02-04T07:52:43;93554.25;;;3.53;93.88
40384;BME280;26097;42.366;23.818;2023-02-04T07:55:43;93546.19;;;3.60;89.96
40384;BME280;26097;42.366;23.818;2023-02-04T07:58:44;93534.59;;;3.67;91.86
40384;BME280;26097;42.366;23.818;2023-02-04T08:01:44;93542.53;;;3.78;91.06
40384;BME280;26097;42.366;23.818;2023-02-04T08:04:44;93536.22;;;3.84;86.36
40384;BME280;26097;42.366;23.818;2023-02-04T08:07:45;93535.94;;;4.03;83.70
40384;BME280;26097;42.366;23.818;2023-02-04T08:10:45;93512.16;;;4.27;83.28
40384;BME280;26097;42.366;23.818;2023-02-04T08:13:46;93513.88;;;4.70;80.01
40384;BME280;26097;42.366;23.818;2023-02-04T08:16:46;93520.63;;;4.58;79.22
40384;BME280;26097;42.366;23.818;2023-02-04T08:19:46;93516.00;;;4.63;79.66
40384;BME280;26097;42.366;23.818;2023-02-04T08:22:47;93513.41;;;4.63;78.76
40384;BME280;26097;42.366;23.818;2023-02-04T08:25:47;93504.63;;;4.80;77.43
40384;BME280;26097;42.366;23.818;2023-02-04T08:28:48;93508.81;;;4.96;75.90
40384;BME280;26097;42.366;23.818;2023-02-04T08:31:48;93502.28;;;5.18;75.34
40384;BME280;26097;42.366;23.818;2023-02-04T08:34:48;93490.91;;;5.07;73.28
40384;BME280;26097;42.366;23.818;2023-02-04T08:37:49;93503.38;;;5.41;72.35
40384;BME280;26097;42.366;23.818;2023-02-04T08:40:49;93497.81;;;5.47;70.54
40384;BME280;26097;42.366;23.818;2023-02-04T08:43:49;93507.38;;;5.72;66.41
40384;BME280;26097;42.366;23.818;2023-02-04T08:46:50;93496.72;;;5.90;66.57
40384;BME280;26097;42.366;23.818;2023-02-04T08:49:50;93502.44;;;6.34;65.87
40384;BME280;26097;42.366;23.818;2023-02-04T08:52:50;93499.53;;;6.26;63.54
40384;BME280;26097;42.366;23.818;2023-02-04T08:55:51;93503.66;;;6.41;62.92
40384;BME280;26097;42.366;23.818;2023-02-04T08:58:51;93511.72;;;6.50;61.28
40384;BME280;26097;42.366;23.818;2023-02-04T09:01:52;93508.38;;;6.74;63.13
40384;BME280;26097;42.366;23.818;2023-02-04T09:04:52;93517.06;;;6.72;61.07
40384;BME280;26097;42.366;23.818;2023-02-04T09:07:52;93515.47;;;6.33;61.63
40384;BME280;26097;42.366;23.818;2023-02-04T09:10:53;93510.81;;;6.75;61.61
40384;BME280;26097;42.366;23.818;2023-02-04T09:13:53;93518.41;;;6.78;61.00
40384;BME280;26097;42.366;23.818;2023-02-04T09:16:55;93506.53;;;6.63;61.36
40384;BME280;26097;42.366;23.818;2023-02-04T09:19:56;93505.38;;;6.67;61.22
40384;BME280;26097;42.366;23.818;2023-02-04T09:22:56;93502.13;;;6.76;59.18
40384;BME280;26097;42.366;23.818;2023-02-04T09:25:56;93501.41;;;6.74;60.36
40384;BME280;26097;42.366;23.818;2023-02-04T09:28:57;93513.34;;;6.64;60.55
40384;BME280;26097;42.366;23.818;2023-02-04T09:31:57;93503.28;;;6.72;60.62
40384;BME280;26097;42.366;23.818;2023-02-04T09:34:58;93505.66;;;6.75;59.80
40384;BME280;26097;42.366;23.818;2023-02-04T09:37:58;93497.69;;;7.03;60.15
40384;BME280;26097;42.366;23.818;2023-02-04T09:41:01;93496.88;;;7.02;59.72
40384;BME280;26097;42.366;23.818;2023-02-04T09:44:03;93491.75;;;6.89;59.67
40384;BME280;26097;42.366;23.818;2023-02-04T09:47:04;93501.09;;;6.79;60.69
40384;BME280;26097;42.366;23.818;2023-02-04T09:50:11;93494.75;;;6.33;60.66
40384;BME280;26097;42.366;23.818;2023-02-04T09:53:15;93484.94;;;6.75;62.41
40384;BME280;26097;42.366;23.818;2023-02-04T09:56:17;93505.50;;;6.52;62.48
40384;BME280;26097;42.366;23.818;2023-02-04T09:59:20;93489.59;;;6.20;63.64
40384;BME280;26097;42.366;23.818;2023-02-04T10:02:23;93479.75;;;5.99;66.20
40384;BME280;26097;42.366;23.818;2023-02-04T10:05:29;93491.44;;;5.79;67.59
40384;BME280;26097;42.366;23.818;2023-02-04T10:08:32;93488.97;;;5.77;67.52
40384;BME280;26097;42.366;23.818;2023-02-04T10:11:35;93494.28;;;5.35;70.04
40384;BME280;26097;42.366;23.818;2023-02-04T10:14:36;93516.69;;;5.22;73.78
40384;BME280;26097;42.366;23.818;2023-02-04T10:17:36;93487.59;;;5.05;75.15
40384;BME280;26097;42.366;23.818;2023-02-04T10:20:37;93483.91;;;4.95;78.70
40384;BME280;26097;42.366;23.818;2023-02-04T10:23:37;93474.44;;;4.95;79.55
40384;BME280;26097;42.366;23.818;2023-02-04T10:26:38;93465.88;;;5.08;78.30
40384;BME280;26097;42.366;23.818;2023-02-04T10:29:38;93473.53;;;4.82;79.55
40384;BME280;26097;42.366;23.818;2023-02-04T10:32:41;93468.97;;;4.72;79.97
40384;BME280;26097;42.366;23.818;2023-02-04T10:35:48;93482.00;;;4.56;80.83
40384;BME280;26097;42.366;23.818;2023-02-04T10:39:00;93469.69;;;4.47;84.44
40384;BME280;26097;42.366;23.818;2023-02-04T10:42:00;93471.81;;;4.40;89.20
40384;BME280;26097;42.366;23.818;2023-02-04T10:45:01;93475.31;;;4.39;91.09
40384;BME280;26097;42.366;23.818;2023-02-04T10:48:01;93471.81;;;4.11;99.77
40384;BME280;26097;42.366;23.818;2023-02-04T10:51:02;93472.47;;;3.71;100.00
40384;BME280;26097;42.366;23.818;2023-02-04T10:54:07;93462.41;;;3.52;100.00
40384;BME280;26097;42.366;23.818;2023-02-04T10:57:36;93460.19;;;3.46;100.00
40384;BME280;26097;42.366;23.818;2023-02-04T11:00:37;93451.91;;;3.41;100.00
40384;BME280;26097;42.366;23.818;2023-02-04T11:03:38;93452.19;;;3.51;100.00
40384;BME280;26097;42.366;23.818;2023-02-04T11:06:39;93454.53;;;3.55;100.00
40384;BME280;26097;42.366;23.818;2023-02-04T11:09:40;93439.69;;;3.59;100.00
40384;BME280;26097;42.366;23.818;2023-02-04T11:15:54;93439.78;;;3.72;100.00
40384;BME280;26097;42.366;23.818;2023-02-04T11:18:55;93447.72;;;3.83;100.00
40384;BME280;26097;42.366;23.818;2023-02-04T11:22:18;93432.41;;;3.66;100.00
40384;BME280;26097;42.366;23.818;2023-02-04T11:25:33;93428.91;;;3.67;100.00
40384;BME280;26097;42.366;23.818;2023-02-04T11:34:49;93431.03;;;3.60;100.00
40384;BME280;26097;42.366;23.818;2023-02-04T11:37:55;93435.28;;;3.47;100.00
40384;BME280;26097;42.366;23.818;2023-02-04T11:40:58;93432.56;;;3.34;100.00
40384;BME280;26097;42.366;23.818;2023-02-04T11:43:58;93439.25;;;3.07;100.00
40384;BME280;26097;42.366;23.818;2023-02-04T11:47:00;93432.06;;;2.82;100.00
40384;BME280;26097;42.366;23.818;2023-02-04T11:50:20;93426.56;;;2.88;100.00
40384;BME280;26097;42.366;23.818;2023-02-04T11:53:23;93415.47;;;3.02;100.00
40384;BME280;26097;42.366;23.818;2023-02-04T11:56:26;93417.41;;;3.29;100.00
40384;BME280;26097;42.366;23.818;2023-02-04T11:59:27;93405.81;;;3.51;100.00
40384;BME280;26097;42.366;23.818;2023-02-04T12:02:27;93405.34;;;3.44;100.00
40384;BME280;26097;42.366;23.818;2023-02-04T12:05:42;93398.81;;;3.38;100.00
40384;BME280;26097;42.366;23.818;2023-02-04T12:08:42;93403.66;;;3.28;100.00
40384;BME280;26097;42.366;23.818;2023-02-04T12:11:54;93397.13;;;3.23;100.00
40384;BME280;26097;42.366;23.818;2023-02-04T12:15:08;93381.25;;;3.45;100.00
40384;BME280;26097;42.366;23.818;2023-02-04T12:18:12;93389.97;;;3.42;100.00
40384;BME280;26097;42.366;23.818;2023-02-04T12:21:14;93377.38;;;3.52;100.00
40384;BME280;26097;42.366;23.818;2023-02-04T12:24:14;93382.72;;;3.49;100.00
40384;BME280;26097;42.366;23.818;2023-02-04T12:27:15;93380.59;;;3.41;100.00
40384;BME280;26097;42.366;23.818;2023-02-04T12:30:15;93381.44;;;3.42;100.00
40384;BME280;26097;42.366;23.818;2023-02-04T12:33:17;93392.19;;;3.49;100.00
40384;BME280;26097;42.366;23.818;2023-02-04T12:36:18;93389.53;;;3.50;100.00
40384;BME280;26097;42.366;23.818;2023-02-04T12:39:18;93395.03;;;3.44;100.00
40384;BME280;26097;42.366;23.818;2023-02-04T12:42:19;93401.84;;;3.31;100.00
40384;BME280;26097;42.366;23.818;2023-02-04T12:45:19;93405.91;;;3.35;100.00
40384;BME280;26097;42.366;23.818;2023-02-04T12:48:20;93391.91;;;3.39;100.00
40384;BME280;26097;42.366;23.818;2023-02-04T12:51:20;93403.94;;;3.24;100.00
40384;BME280;26097;42.366;23.818;2023-02-04T12:54:21;93398.34;;;3.32;100.00
40384;BME280;26097;42.366;23.818;2023-02-04T12:57:21;93400.63;;;3.22;100.00
40384;BME280;26097;42.366;23.818;2023-02-04T13:00:22;93401.16;;;3.12;100.00
40384;BME280;26097;42.366;23.818;2023-02-04T13:03:23;93405.66;;;3.09;100.00
40384;BME280;26097;42.366;23.818;2023-02-04T13:06:24;93410.00;;;3.23;100.00
40384;BME280;26097;42.366;23.818;2023-02-04T13:09:24;93406.97;;;3.16;100.00
40384;BME280;26097;42.366;23.818;2023-02-04T13:12:25;93402.22;;;3.39;100.00
40384;BME280;26097;42.366;23.818;2023-02-04T13:15:26;93406.25;;;3.28;100.00
40384;BME280;26097;42.366;23.818;2023-02-04T13:18:26;93408.28;;;3.38;100.00
40384;BME280;26097;42.366;23.818;2023-02-04T13:21:27;93414.19;;;3.40;100.00
40384;BME280;26097;42.366;23.818;2023-02-04T13:24:28;93401.78;;;3.47;100.00
40384;BME280;26097;42.366;23.818;2023-02-04T13:27:28;93415.00;;;3.40;100.00
40384;BME280;26097;42.366;23.818;2023-02-04T13:30:30;93412.88;;;3.18;100.00
40384;BME280;26097;42.366;23.818;2023-02-04T13:33:31;93418.09;;;3.17;100.00
40384;BME280;26097;42.366;23.818;2023-02-04T13:36:32;93415.16;;;3.08;100.00
40384;BME280;26097;42.366;23.818;2023-02-04T13:39:32;93412.88;;;2.88;100.00
40384;BME280;26097;42.366;23.818;2023-02-04T13:42:33;93413.56;;;2.75;100.00
40384;BME280;26097;42.366;23.818;2023-02-04T13:45:33;93412.09;;;2.55;100.00
40384;BME280;26097;42.366;23.818;2023-02-04T13:48:34;93411.03;;;2.59;100.00
40384;BME280;26097;42.366;23.818;2023-02-04T13:51:34;93418.66;;;2.61;100.00
40384;BME280;26097;42.366;23.818;2023-02-04T13:54:34;93407.44;;;2.62;100.00
40384;BME280;26097;42.366;23.818;2023-02-04T13:57:35;93396.59;;;2.56;100.00
40384;BME280;26097;42.366;23.818;2023-02-04T14:00:36;93415.09;;;2.63;100.00
40384;BME280;26097;42.366;23.818;2023-02-04T14:03:37;93405.59;;;2.64;100.00
40384;BME280;26097;42.366;23.818;2023-02-04T14:06:39;93413.78;;;2.56;100.00
40384;BME280;26097;42.366;23.818;2023-02-04T14:09:42;93407.53;;;2.60;100.00
40384;BME280;26097;42.366;23.818;2023-02-04T14:12:43;93417.91;;;2.59;100.00
40384;BME280;26097;42.366;23.818;2023-02-04T14:15:43;93413.44;;;2.62;100.00
40384;BME280;26097;42.366;23.818;2023-02-04T14:18:44;93415.25;;;2.60;100.00
40384;BME280;26097;42.366;23.818;2023-02-04T14:21:44;93419.31;;;2.64;100.00
40384;BME280;26097;42.366;23.818;2023-02-04T14:24:45;93422.38;;;2.55;100.00
40384;BME280;26097;42.366;23.818;2023-02-04T14:27:46;93427.72;;;2.52;100.00
40384;BME280;26097;42.366;23.818;2023-02-04T14:30:47;93427.88;;;2.49;100.00
40384;BME280;26097;42.366;23.818;2023-02-04T14:33:49;93433.03;;;2.49;100.00
40384;BME280;26097;42.366;23.818;2023-02-04T14:36:49;93436.75;;;2.43;100.00
40384;BME280;26097;42.366;23.818;2023-02-04T14:39:50;93451.13;;;2.31;100.00
40384;BME280;26097;42.366;23.818;2023-02-04T14:42:50;93434.88;;;2.31;100.00
40384;BME280;26097;42.366;23.818;2023-02-04T14:45:51;93445.47;;;2.24;100.00
40384;BME280;26097;42.366;23.818;2023-02-04T14:48:51;93447.97;;;2.26;100.00
40384;BME280;26097;42.366;23.818;2023-02-04T14:51:51;93448.16;;;2.23;100.00
40384;BME280;26097;42.366;23.818;2023-02-04T14:54:52;93456.09;;;2.18;100.00
40384;BME280;26097;42.366;23.818;2023-02-04T14:57:53;93460.44;;;2.18;100.00
40384;BME280;26097;42.366;23.818;2023-02-04T15:00:53;93458.91;;;2.13;100.00
40384;BME280;26097;42.366;23.818;2023-02-04T15:03:54;93466.28;;;2.04;100.00
40384;BME280;26097;42.366;23.818;2023-02-04T15:06:54;93463.06;;;2.00;100.00
40384;BME280;26097;42.366;23.818;2023-02-04T15:09:56;93473.41;;;1.98;100.00
40384;BME280;26097;42.366;23.818;2023-02-04T15:12:57;93466.69;;;1.96;100.00
40384;BME280;26097;42.366;23.818;2023-02-04T15:15:58;93467.16;;;1.87;100.00
40384;BME280;26097;42.366;23.818;2023-02-04T15:18:58;93474.28;;;1.81;100.00
40384;BME280;26097;42.366;23.818;2023-02-04T15:21:59;93481.56;;;1.73;100.00
40384;BME280;26097;42.366;23.818;2023-02-04T15:24:59;93481.72;;;1.70;100.00
40384;BME280;26097;42.366;23.818;2023-02-04T15:27:59;93489.00;;;1.62;100.00
40384;BME280;26097;42.366;23.818;2023-02-04T15:31:00;93495.25;;;1.56;100.00
40384;BME280;26097;42.366;23.818;2023-02-04T15:34:01;93498.81;;;1.53;100.00
40384;BME280;26097;42.366;23.818;2023-02-04T15:37:02;93501.69;;;1.47;100.00
40384;BME280;26097;42.366;23.818;2023-02-04T15:40:03;93496.56;;;1.47;100.00
40384;BME280;26097;42.366;23.818;2023-02-04T15:43:04;93522.72;;;1.38;100.00
40384;BME280;26097;42.366;23.818;2023-02-04T15:46:04;93517.56;;;1.38;100.00
40384;BME280;26097;42.366;23.818;2023-02-04T15:49:05;93567.25;;;1.37;100.00
40384;BME280;26097;42.366;23.818;2023-02-04T15:52:05;93533.25;;;1.32;100.00
40384;BME280;26097;42.366;23.818;2023-02-04T15:55:06;93548.81;;;1.28;100.00
40384;BME280;26097;42.366;23.818;2023-02-04T15:58:06;93528.13;;;1.32;100.00
40384;BME280;26097;42.366;23.818;2023-02-04T16:01:06;93536.88;;;1.27;100.00
40384;BME280;26097;42.366;23.818;2023-02-04T16:04:07;93589.00;;;1.30;100.00